Time;durP1;ratioP1;P1;durP2;ratioP2;P2;SDS_P1;SDS_P2;PMS_P1;PMS_P2;Temp;Humidity;BMP_temperature;BMP_pressure;BME280_temperature;BME280_humidity;BME280_pressure;Samples;Min_cycle;Max_cycle;Signal;HPM_P1;HPM_P2
2022/01/29 00:00:47;;;;;;;11.07;10.07;;;2.20;99.90;;;2.95;88.25;99524.94;5244009;28;20232;-63
2022/01/29 00:03:20;;;;;;;11.70;10.53;;;2.20;99.90;;;2.97;88.35;99520.94;5243043;28;20239;-64
2022/01/29 00:05:54;;;;;;;11.20;9.57;;;2.20;99.90;;;2.96;88.15;99528.34;5245697;28;20232;-63
2022/01/29 00:08:27;;;;;;;10.63;8.97;;;2.20;99.90;;;2.92;87.08;99517.00;5242636;28;20223;-64
2022/01/29 00:11:08;;;;;;;10.80;9.77;;;2.10;99.90;;;2.88;87.90;99520.78;5244791;28;20696;-63
2022/01/29 00:13:41;;;;;;;9.90;9.00;;;2.10;99.90;;;2.89;88.73;99521.69;5247116;28;20720;-65
2022/01/29 00:16:14;;;;;;;11.67;10.30;;;2.10;99.90;;;2.92;88.26;99517.00;5246078;28;20217;-63
2022/01/29 00:18:47;;;;;;;11.20;10.10;;;2.10;99.90;;;2.98;87.67;99517.69;5245293;28;20229;-63
2022/01/29 00:21:20;;;;;;;12.50;10.87;;;2.00;99.90;;;2.88;88.26;99517.38;5246142;28;20220;-64
2022/01/29 00:23:53;;;;;;;12.47;10.37;;;2.10;99.90;;;2.88;88.73;99517.38;5245537;28;20224;-64
2022/01/29 00:26:28;;;;;;;13.00;11.70;;;2.00;99.90;;;2.94;88.40;99520.56;5244443;28;20213;-64
2022/01/29 00:29:08;;;;;;;13.07;11.73;;;2.00;99.90;;;2.92;88.58;99510.31;5246041;28;20219;-64
2022/01/29 00:31:41;;;;;;;12.47;11.27;;;2.00;99.90;;;2.93;88.78;99502.00;5244156;28;20228;-64
2022/01/29 00:34:15;;;;;;;11.93;10.83;;;2.00;99.90;;;2.82;88.39;99506.56;5243146;28;20222;-64
2022/01/29 00:36:48;;;;;;;12.30;11.03;;;2.00;99.90;;;2.90;88.13;99498.25;5246352;28;20225;-63
2022/01/29 00:39:21;;;;;;;11.47;10.37;;;1.90;99.90;;;2.85;88.85;99494.28;5246896;28;20589;-63
2022/01/29 00:41:55;;;;;;;12.60;10.33;;;2.00;99.90;;;2.81;89.63;99489.63;5245886;28;20216;-64
2022/01/29 00:44:47;;;;;;;10.73;9.63;;;2.00;99.90;;;2.85;89.40;99489.25;5245907;28;20254;-64
2022/01/29 00:47:20;;;;;;;12.23;9.97;;;1.90;99.90;;;2.79;89.68;99479.34;5244475;28;20222;-64
2022/01/29 00:49:54;;;;;;;11.00;9.90;;;1.90;99.90;;;2.79;89.70;99473.41;5246549;28;20601;-64
2022/01/29 00:52:27;;;;;;;10.37;9.37;;;1.90;99.90;;;2.79;89.40;99463.31;5246064;28;20216;-64
2022/01/29 00:55:00;;;;;;;10.63;9.53;;;1.80;99.90;;;2.74;89.66;99464.41;5245855;28;20754;-64
2022/01/29 00:57:37;;;;;;;12.50;10.07;;;1.90;99.90;;;2.64;89.55;99462.47;5244328;28;20246;-64
2022/01/29 01:00:13;;;;;;;11.93;10.70;;;1.80;99.90;;;2.59;89.55;99458.53;5245183;28;20603;-63
2022/01/29 01:02:46;;;;;;;11.63;10.43;;;1.80;99.90;;;2.61;90.38;99447.00;5245998;28;20220;-63
2022/01/29 01:05:19;;;;;;;11.37;10.20;;;1.80;99.90;;;2.61;89.78;99450.41;5245948;28;20217;-63
2022/01/29 01:07:52;;;;;;;13.50;11.53;;;1.80;99.90;;;2.64;90.21;99442.28;5245584;28;20220;-64
2022/01/29 01:10:26;;;;;;;11.90;10.70;;;1.90;99.90;;;2.66;90.70;99450.91;5244818;28;20897;-64
2022/01/29 01:13:00;;;;;;;12.13;10.83;;;1.90;99.90;;;2.50;89.38;99455.88;5243805;28;20235;-64
2022/01/29 01:15:33;;;;;;;10.10;9.10;;;1.80;99.90;;;2.56;90.14;99454.03;5246152;28;20223;-64
2022/01/29 01:18:07;;;;;;;9.73;8.13;;;1.80;99.90;;;2.49;89.81;99451.56;5245526;28;20739;-64
2022/01/29 01:20:41;;;;;;;10.07;8.97;;;1.70;99.90;;;2.47;91.05;99455.50;5244502;28;20221;-64
2022/01/29 01:23:14;;;;;;;10.90;9.80;;;1.70;99.90;;;2.58;90.74;99452.59;5245598;28;20217;-64
2022/01/29 01:25:47;;;;;;;10.00;9.00;;;1.70;99.90;;;2.53;90.57;99450.28;5239325;28;20220;-64
2022/01/29 01:28:22;;;;;;;10.13;9.23;;;1.70;99.90;;;2.48;89.75;99450.63;5242568;28;20238;-64
2022/01/29 01:30:55;;;;;;;10.27;9.37;;;1.70;99.90;;;2.55;90.70;99452.25;5245130;28;20229;-64
2022/01/29 01:33:28;;;;;;;10.47;9.57;;;1.70;99.90;;;2.57;90.32;99454.94;5245037;28;20948;-64
2022/01/29 01:36:04;;;;;;;10.83;9.73;;;1.70;99.90;;;2.57;90.41;99449.88;5244686;28;20216;-64
2022/01/29 01:38:43;;;;;;;11.13;9.43;;;1.70;99.90;;;2.51;91.06;99450.06;5244967;28;20259;-64
2022/01/29 01:41:22;;;;;;;11.00;9.90;;;1.70;99.90;;;2.52;91.12;99454.44;5244962;28;20223;-64
2022/01/29 01:44:02;;;;;;;11.80;10.07;;;1.70;99.90;;;2.50;91.53;99448.28;5242088;28;20306;-64
2022/01/29 01:46:35;;;;;;;10.17;9.13;;;1.70;99.90;;;2.46;91.76;99441.06;5241459;28;20220;-65
2022/01/29 01:49:08;;;;;;;13.47;10.40;;;1.70;99.90;;;2.47;90.86;99442.91;5244191;28;20217;-64
2022/01/29 01:51:43;;;;;;;10.83;9.83;;;1.70;99.90;;;2.47;91.69;99442.91;5245799;28;20717;-64
2022/01/29 01:54:16;;;;;;;12.43;10.93;;;1.70;99.90;;;2.47;92.24;99442.91;5240865;28;20216;-63
2022/01/29 01:56:49;;;;;;;11.53;10.53;;;1.70;99.90;;;2.46;91.71;99446.13;5245218;28;20243;-63
2022/01/29 01:59:23;;;;;;;11.43;9.53;;;1.70;99.90;;;2.52;91.70;99445.94;5244636;28;20221;-64
2022/01/29 02:01:57;;;;;;;10.50;9.60;;;1.80;99.90;;;2.55;91.95;99436.19;5245061;28;20216;-63
2022/01/29 02:04:32;;;;;;;11.87;10.73;;;1.80;99.90;;;2.59;92.31;99430.78;5244490;28;20258;-63
2022/01/29 02:07:06;;;;;;;11.17;10.07;;;1.90;99.90;;;2.66;91.13;99419.03;5243621;28;20221;-64
2022/01/29 02:09:40;;;;;;;11.70;10.27;;;1.80;99.90;;;2.67;90.79;99414.88;5247388;28;20221;-64
2022/01/29 02:12:13;;;;;;;10.70;9.67;;;1.80;99.90;;;2.69;90.57;99411.78;5249431;28;20216;-63
2022/01/29 02:14:48;;;;;;;10.20;9.20;;;1.70;99.90;;;2.76;89.44;99407.44;5247206;28;20221;-64
2022/01/29 02:17:21;;;;;;;9.73;8.80;;;1.70;99.90;;;2.63;89.70;99405.13;5248543;28;20303;-64
2022/01/29 02:19:54;;;;;;;9.33;8.43;;;1.70;99.90;;;2.56;90.29;99406.09;5249517;28;20235;-63
2022/01/29 02:22:28;;;;;;;9.97;9.07;;;1.70;99.90;;;2.51;90.72;99416.38;5245429;28;20219;-64
2022/01/29 02:25:01;;;;;;;11.50;9.87;;;1.70;99.90;;;2.47;91.11;99412.63;5249477;28;20594;-63
2022/01/29 02:27:34;;;;;;;10.90;9.80;;;1.70;99.90;;;2.51;91.25;99408.81;5247186;28;20223;-63
2022/01/29 02:30:09;;;;;;;12.30;9.93;;;1.70;99.90;;;2.47;91.31;99397.47;5248449;28;20221;-64
2022/01/29 02:32:42;;;;;;;11.20;10.00;;;1.70;99.90;;;2.45;91.85;99386.31;5245804;28;20251;-64
2022/01/29 02:35:15;;;;;;;10.80;9.70;;;1.70;99.90;;;2.43;92.65;99390.28;5245766;28;20289;-63
2022/01/29 02:37:51;;;;;;;10.40;9.40;;;1.70;99.90;;;2.45;92.81;99381.25;5246725;28;20221;-63
2022/01/29 02:40:25;;;;;;;10.23;9.23;;;1.70;99.90;;;2.44;92.60;99371.91;5242320;28;20231;-64
2022/01/29 02:42:58;;;;;;;10.67;9.77;;;1.70;99.90;;;2.51;92.41;99369.31;5247913;28;20232;-63
2022/01/29 02:45:31;;;;;;;11.57;10.37;;;1.70;99.90;;;2.47;92.05;99367.19;5241424;28;20212;-63
2022/01/29 02:48:05;;;;;;;12.43;10.43;;;1.60;99.90;;;2.43;92.13;99360.91;5246247;28;20209;-63
2022/01/29 02:50:40;;;;;;;10.93;9.93;;;1.60;99.90;;;2.40;91.59;99352.09;5247528;28;20226;-63
2022/01/29 02:53:14;;;;;;;10.60;9.60;;;1.60;99.90;;;2.37;92.28;99344.16;5246910;28;20225;-63
2022/01/29 02:55:48;;;;;;;9.80;8.80;;;1.60;99.90;;;2.38;92.34;99341.84;5243106;28;20220;-63
2022/01/29 02:58:21;;;;;;;11.13;9.43;;;1.60;99.90;;;2.40;92.53;99342.88;5241393;28;20221;-64
2022/01/29 03:00:54;;;;;;;10.30;9.23;;;1.60;99.90;;;2.42;92.40;99333.88;5246495;28;20235;-63
2022/01/29 03:03:28;;;;;;;9.57;8.77;;;1.60;99.90;;;2.39;92.25;99332.63;5245850;28;20219;-64
2022/01/29 03:06:02;;;;;;;11.03;9.93;;;1.60;99.90;;;2.41;92.23;99336.25;5248055;28;20258;-64
2022/01/29 03:08:37;;;;;;;11.17;10.10;;;1.60;99.90;;;2.36;92.84;99329.78;5247036;28;20225;-64
2022/01/29 03:11:11;;;;;;;12.63;10.60;;;1.60;99.90;;;2.34;92.29;99333.75;5247031;28;20564;-63
2022/01/29 03:13:44;;;;;;;11.87;10.57;;;1.60;99.90;;;2.39;91.98;99328.47;5246898;28;20235;-64
2022/01/29 03:16:18;;;;;;;11.97;10.77;;;1.50;99.90;;;2.35;92.69;99321.31;5248674;28;20231;-64
2022/01/29 03:18:51;;;;;;;11.10;10.20;;;1.50;99.90;;;2.37;92.56;99319.84;5244510;28;20707;-64
2022/01/29 03:21:24;;;;;;;11.27;10.07;;;1.60;99.90;;;2.38;92.93;99316.59;5247136;28;20225;-63
2022/01/29 03:23:58;;;;;;;12.57;10.40;;;1.60;99.90;;;2.33;92.74;99304.19;5247634;28;20221;-63
2022/01/29 03:26:32;;;;;;;11.87;10.27;;;1.60;99.90;;;2.37;92.63;99308.84;5246367;28;20721;-63
2022/01/29 03:29:05;;;;;;;11.40;10.30;;;1.60;99.90;;;2.35;93.10;99305.28;5244782;28;20215;-64
2022/01/29 03:31:38;;;;;;;12.17;10.87;;;1.60;99.90;;;2.41;92.41;99311.00;5244011;28;20214;-64
2022/01/29 03:34:11;;;;;;;12.97;11.03;;;1.60;99.90;;;2.42;93.20;99310.28;5240045;28;20631;-63
2022/01/29 03:36:44;;;;;;;11.33;10.33;;;1.70;99.90;;;2.43;92.12;99300.38;5241468;28;20315;-63
2022/01/29 03:39:20;;;;;;;11.70;10.60;;;1.60;99.90;;;2.46;92.21;99304.81;5246344;28;20590;-64
2022/01/29 03:41:53;;;;;;;12.43;11.20;;;1.60;99.90;;;2.45;92.41;99301.41;5244595;28;20236;-63
2022/01/29 03:44:26;;;;;;;11.07;9.97;;;1.60;99.90;;;2.48;92.45;99293.28;5246306;28;20668;-63
2022/01/29 03:47:00;;;;;;;12.23;11.03;;;1.60;99.90;;;2.41;92.83;99295.88;5247257;28;20258;-63
2022/01/29 03:49:33;;;;;;;10.80;9.70;;;1.60;99.90;;;2.38;92.53;99285.44;5246424;28;20304;-63
2022/01/29 03:52:07;;;;;;;9.77;8.87;;;1.60;99.90;;;2.40;92.42;99274.75;5242591;28;20220;-62
2022/01/29 03:54:41;;;;;;;9.17;8.27;;;1.50;99.90;;;2.27;91.72;99285.88;5247333;28;20243;-64
2022/01/29 03:57:14;;;;;;;8.63;7.90;;;1.50;99.90;;;2.22;92.95;99290.38;5245338;28;20227;-63
2022/01/29 03:59:47;;;;;;;10.90;9.87;;;1.40;99.90;;;2.27;93.03;99290.91;5244675;28;20227;-63
2022/01/29 04:02:20;;;;;;;11.40;10.20;;;1.50;99.90;;;2.31;92.91;99288.88;5245912;28;20231;-63
2022/01/29 04:04:54;;;;;;;11.33;9.90;;;1.60;99.90;;;2.34;94.08;99290.84;5246727;28;20256;-64
2022/01/29 04:07:27;;;;;;;10.37;9.37;;;1.60;99.90;;;2.34;93.37;99283.28;5240798;28;20683;-63
2022/01/29 04:10:01;;;;;;;12.37;11.03;;;1.60;99.90;;;2.39;93.79;99282.19;5246534;28;20250;-65
2022/01/29 04:12:40;;;;;;;13.50;11.30;;;1.60;99.90;;;2.43;92.99;99276.72;5246050;28;20231;-64
2022/01/29 04:15:13;;;;;;;10.40;9.37;;;1.60;99.90;;;2.37;92.16;99271.00;5244502;28;20219;-63
2022/01/29 04:17:46;;;;;;;9.33;8.43;;;1.50;99.90;;;2.27;92.65;99280.81;5246611;28;20222;-63
2022/01/29 04:20:21;;;;;;;9.17;8.37;;;1.50;99.90;;;2.24;93.76;99277.22;5243838;28;20228;-63
2022/01/29 04:22:54;;;;;;;9.50;7.83;;;1.50;99.90;;;2.26;93.53;99274.84;5245255;28;20691;-63
2022/01/29 04:25:29;;;;;;;11.10;8.90;;;1.50;99.90;;;2.30;92.82;99276.13;5246851;28;20213;-63
2022/01/29 04:28:03;;;;;;;9.50;8.53;;;1.40;99.90;;;2.25;93.07;99275.59;5245925;28;20618;-63
2022/01/29 04:30:44;;;;;;;10.40;9.00;;;1.40;99.90;;;2.24;93.72;99263.72;5246064;28;20219;-63
2022/01/29 04:33:28;;;;;;;9.57;8.77;;;1.50;99.90;;;2.23;93.81;99270.38;5241459;28;20223;-64
2022/01/29 04:36:05;;;;;;;9.17;8.47;;;1.40;99.90;;;2.30;93.60;99271.97;5246121;28;20220;-63
2022/01/29 04:38:38;;;;;;;8.93;8.17;;;1.50;99.90;;;2.32;93.45;99269.59;5245333;28;20224;-64
2022/01/29 04:41:13;;;;;;;11.53;10.43;;;1.50;99.90;;;2.31;93.88;99257.72;5246265;28;20224;-63
2022/01/29 04:43:46;;;;;;;11.80;10.23;;;1.50;99.90;;;2.32;93.54;99246.88;5243916;28;20218;-65
2022/01/29 04:46:19;;;;;;;12.10;10.93;;;1.50;99.90;;;2.33;93.89;99243.66;5246216;28;20215;-64
2022/01/29 04:48:53;;;;;;;11.87;10.87;;;1.50;99.90;;;2.26;93.65;99259.72;5243599;28;20215;-64
2022/01/29 04:51:26;;;;;;;10.97;9.73;;;1.50;99.90;;;2.28;93.37;99272.50;5245841;28;20573;-63
2022/01/29 04:53:59;;;;;;;9.53;8.70;;;1.50;99.90;;;2.22;94.43;99261.00;5243255;28;20216;-63
2022/01/29 04:56:34;;;;;;;9.47;8.57;;;1.50;99.90;;;2.22;94.30;99267.69;5244162;28;20660;-63
2022/01/29 04:59:07;;;;;;;9.43;8.63;;;1.50;99.90;;;2.25;94.07;99268.91;5245271;28;20224;-64
2022/01/29 05:01:40;;;;;;;12.87;11.47;;;1.50;99.90;;;2.30;94.28;99266.91;5242465;28;20577;-64
2022/01/29 05:04:13;;;;;;;19.07;15.20;;;1.60;99.90;;;2.31;93.54;99257.72;5237995;28;20216;-63
2022/01/29 05:06:47;;;;;;;22.70;15.07;;;1.60;99.90;;;2.38;94.00;99257.69;5244254;28;20219;-64
2022/01/29 05:09:20;;;;;;;25.40;17.90;;;1.70;99.90;;;2.41;94.08;99258.91;5246171;28;20217;-64
2022/01/29 05:11:55;;;;;;;18.10;13.90;;;1.70;99.90;;;2.48;93.42;99255.44;5245079;28;20224;-64
2022/01/29 05:14:37;;;;;;;15.07;12.53;;;1.70;99.90;;;2.48;93.97;99258.84;5244533;28;20218;-64
2022/01/29 05:28:32;;;;;;;9.90;8.90;;;1.60;99.90;;;2.70;91.35;99274.75;5240858;28;20220;-62
2022/01/29 05:31:05;;;;;;;10.03;9.20;;;1.70;99.90;;;2.67;92.01;99271.88;5241499;28;20214;-62
2022/01/29 05:33:39;;;;;;;10.40;9.40;;;1.70;99.90;;;2.63;92.08;99274.81;5243827;28;20711;-62
2022/01/29 05:36:12;;;;;;;10.87;9.87;;;1.70;99.90;;;2.64;92.28;99263.97;5244127;28;20224;-61
2022/01/29 05:38:45;;;;;;;11.10;10.03;;;1.70;99.90;;;2.56;92.18;99263.88;5245508;28;20224;-62
2022/01/29 05:41:18;;;;;;;10.83;9.83;;;1.60;99.90;;;2.43;92.33;99267.56;5243992;28;20225;-60
2022/01/29 05:43:52;;;;;;;9.97;9.07;;;1.60;99.90;;;2.50;93.22;99265.72;5245098;28;20582;-61
2022/01/29 05:46:26;;;;;;;10.20;9.30;;;1.70;99.90;;;2.51;93.32;99248.22;5247679;28;20683;-61
2022/01/29 05:48:59;;;;;;;10.83;9.83;;;1.70;99.90;;;2.67;92.37;99241.59;5246446;28;20737;-63
2022/01/29 05:51:32;;;;;;;10.57;9.57;;;1.70;99.90;;;2.69;91.45;99231.69;5244769;28;20225;-61
2022/01/29 05:54:05;;;;;;;12.80;10.00;;;1.70;99.90;;;2.65;91.49;99232.06;5248390;28;20220;-61
2022/01/29 05:56:38;;;;;;;10.53;9.63;;;1.70;99.90;;;2.56;92.41;99243.69;5249492;28;20220;-62
2022/01/29 05:59:13;;;;;;;10.57;8.83;;;1.70;99.90;;;2.39;93.00;99246.84;5247053;28;20457;-65
2022/01/29 06:01:46;;;;;;;12.83;10.43;;;1.60;99.90;;;2.41;93.20;99251.34;5247729;28;20230;-65
2022/01/29 06:04:19;;;;;;;11.80;10.60;;;1.70;99.90;;;2.46;93.53;99242.69;5248405;28;20224;-63
2022/01/29 06:06:52;;;;;;;15.10;11.43;;;1.70;99.90;;;2.50;93.91;99260.66;5247800;28;20217;-65
2022/01/29 06:09:25;;;;;;;12.03;10.77;;;1.70;99.90;;;2.50;93.93;99255.63;5247998;28;20722;-64
2022/01/29 06:11:59;;;;;;;12.40;10.63;;;1.80;99.90;;;2.53;93.90;99261.91;5247396;28;20217;-64
2022/01/29 06:14:33;;;;;;;12.40;11.10;;;1.70;99.90;;;2.57;93.59;99261.50;5247285;28;20228;-64
2022/01/29 06:17:06;;;;;;;13.20;11.90;;;1.80;99.90;;;2.66;92.60;99262.53;5244210;28;20219;-64
2022/01/29 06:19:39;;;;;;;13.73;12.30;;;1.80;99.90;;;2.65;92.40;99265.75;5244857;28;20236;-64
2022/01/29 06:22:13;;;;;;;13.13;11.83;;;1.80;99.90;;;2.58;92.03;99275.03;5248031;28;20596;-63
2022/01/29 06:24:46;;;;;;;12.80;11.43;;;1.70;99.90;;;2.55;93.35;99275.59;5247545;28;20211;-64
2022/01/29 06:27:19;;;;;;;12.87;11.57;;;1.70;99.90;;;2.56;93.06;99264.75;5243684;28;20229;-65
2022/01/29 06:29:54;;;;;;;13.53;12.00;;;1.80;99.90;;;2.61;92.80;99261.13;5242582;28;20224;-63
2022/01/29 06:32:27;;;;;;;13.57;11.83;;;1.80;99.90;;;2.60;92.56;99266.88;5245050;28;20595;-64
2022/01/29 06:35:00;;;;;;;13.60;12.23;;;1.80;99.90;;;2.63;91.59;99263.81;5246069;28;20237;-64
2022/01/29 06:37:34;;;;;;;13.60;12.20;;;1.80;99.90;;;2.64;92.78;99271.56;5246809;28;20220;-63
2022/01/29 06:40:09;;;;;;;15.93;14.23;;;1.80;99.90;;;2.75;92.53;99275.28;5247367;28;20693;-63
2022/01/29 06:42:42;;;;;;;17.47;15.67;;;1.80;99.90;;;2.70;92.27;99267.19;5246376;28;20235;-63
2022/01/29 06:45:17;;;;;;;19.67;16.33;;;1.90;99.90;;;2.66;92.22;99284.31;5244264;28;20701;-64
2022/01/29 06:47:50;;;;;;;23.93;18.33;;;1.90;99.90;;;2.61;92.55;99281.31;5245413;28;20225;-64
2022/01/29 06:50:23;;;;;;;23.77;20.13;;;1.90;99.90;;;2.63;92.21;99284.91;5248175;28;20223;-65
2022/01/29 06:52:56;;;;;;;23.80;20.23;;;1.90;99.90;;;2.74;91.97;99292.75;5245255;28;20216;-62
2022/01/29 06:55:30;;;;;;;24.43;20.50;;;2.00;99.90;;;2.83;91.48;99293.75;5240876;28;20226;-64
2022/01/29 06:58:04;;;;;;;28.43;21.73;;;2.00;99.90;;;2.75;92.22;99285.38;5247154;28;20233;-64
2022/01/29 07:00:58;;;;;;;23.53;21.00;;;2.00;99.90;;;2.94;91.25;99291.69;5241376;28;20234;-64
2022/01/29 07:03:31;;;;;;;27.63;22.13;;;2.10;99.90;;;2.95;91.93;99292.59;5237971;28;20319;-63
2022/01/29 07:06:05;;;;;;;26.33;23.43;;;2.10;99.90;;;2.99;91.74;99286.25;5244032;28;20224;-64
2022/01/29 07:08:39;;;;;;;25.70;21.23;;;2.10;99.90;;;3.00;91.37;99276.28;5247994;28;20231;-62
2022/01/29 07:11:12;;;;;;;25.57;21.57;;;2.20;99.90;;;3.05;91.38;99281.88;5245082;28;20233;-62
2022/01/29 07:13:45;;;;;;;26.60;21.60;;;2.20;99.90;;;3.05;91.07;99287.81;5246660;28;20220;-62
2022/01/29 07:16:20;;;;;;;25.97;21.77;;;2.20;99.90;;;3.06;91.02;99269.41;5245817;28;20218;-62
2022/01/29 07:18:53;;;;;;;27.33;23.00;;;2.20;99.90;;;3.07;91.43;99278.78;5243795;28;20234;-63
2022/01/29 07:21:26;;;;;;;27.73;22.33;;;2.20;99.90;;;3.03;91.74;99276.63;5244271;28;20222;-62
2022/01/29 07:23:59;;;;;;;27.60;23.33;;;2.20;99.90;;;3.05;91.98;99276.81;5245335;28;20225;-62
2022/01/29 07:26:32;;;;;;;25.63;21.80;;;2.30;99.90;;;3.03;91.69;99285.84;5244836;28;20232;-62
2022/01/29 07:29:05;;;;;;;28.17;22.30;;;2.30;99.90;;;3.08;92.17;99288.13;5244325;28;20223;-62
2022/01/29 07:31:40;;;;;;;26.47;21.20;;;2.30;99.90;;;3.15;91.26;99280.50;5241286;28;20240;-61
2022/01/29 07:34:13;;;;;;;24.67;20.40;;;2.30;99.90;;;3.16;91.39;99283.94;5238822;28;20232;-62
2022/01/29 07:36:46;;;;;;;23.47;20.97;;;2.30;99.90;;;3.24;91.12;99279.72;5242708;28;20600;-61
2022/01/29 07:39:19;;;;;;;26.90;21.17;;;2.30;99.90;;;3.30;90.32;99277.84;5246242;28;20216;-61
2022/01/29 07:41:53;;;;;;;25.47;21.27;;;2.30;99.90;;;3.27;90.38;99270.84;5242778;28;20809;-62
2022/01/29 07:44:26;;;;;;;25.10;20.13;;;2.30;99.90;;;3.31;90.22;99274.56;5245632;28;20216;-62
2022/01/29 07:47:00;;;;;;;24.27;21.10;;;2.30;99.90;;;3.26;90.13;99268.13;5244833;28;20214;-64
2022/01/29 07:49:33;;;;;;;23.77;21.27;;;2.30;99.90;;;3.23;90.43;99256.06;5246287;28;20227;-64
2022/01/29 07:52:07;;;;;;;25.33;21.40;;;2.30;99.90;;;3.30;90.73;99258.53;5240457;28;20226;-62
2022/01/29 07:54:40;;;;;;;22.67;19.37;;;2.40;99.90;;;3.29;90.33;99251.69;5244022;28;20224;-63
2022/01/29 07:57:13;;;;;;;22.77;20.23;;;2.30;99.90;;;3.32;90.82;99249.50;5240540;28;20228;-61
2022/01/29 07:59:46;;;;;;;26.33;22.10;;;2.40;99.90;;;3.33;91.10;99250.38;5241532;28;20220;-62
2022/01/29 08:02:21;;;;;;;25.00;20.50;;;2.40;99.90;;;3.29;90.94;99248.25;5241685;28;20220;-61
2022/01/29 08:04:54;;;;;;;23.43;20.33;;;2.40;99.90;;;3.31;91.23;99251.84;5239779;28;20439;-61
2022/01/29 08:07:27;;;;;;;26.63;23.03;;;2.50;99.90;;;3.37;90.92;99245.81;5239460;28;20216;-61
2022/01/29 08:10:00;;;;;;;26.73;22.50;;;2.50;99.90;;;3.38;90.78;99231.56;5241871;28;20251;-63
2022/01/29 08:12:34;;;;;;;25.83;21.57;;;2.50;99.90;;;3.50;89.77;99230.34;5245994;28;20223;-62
2022/01/29 08:15:09;;;;;;;26.07;21.97;;;2.50;99.90;;;3.48;89.45;99226.75;5244520;28;20224;-62
2022/01/29 08:17:43;;;;;;;27.27;22.87;;;2.50;99.90;;;3.43;89.42;99227.88;5245393;28;20225;-61
2022/01/29 08:20:16;;;;;;;27.23;21.97;;;2.50;99.90;;;3.37;89.84;99233.16;5244731;28;20598;-61
2022/01/29 08:22:49;;;;;;;25.70;20.83;;;2.50;99.90;;;3.36;90.52;99230.50;5243018;28;20235;-64
2022/01/29 08:25:22;;;;;;;24.47;20.90;;;2.60;99.90;;;3.34;90.00;99231.94;5245523;28;20221;-63
2022/01/29 08:27:55;;;;;;;23.57;21.00;;;2.50;99.90;;;3.35;90.10;99226.19;5243684;28;20417;-60
2022/01/29 08:30:28;;;;;;;25.27;20.70;;;2.60;99.90;;;3.38;90.35;99212.25;5244414;28;20213;-62
2022/01/29 08:33:03;;;;;;;24.93;21.33;;;2.60;99.90;;;3.42;89.93;99205.88;5244234;28;20218;-61
2022/01/29 08:35:36;;;;;;;26.10;22.03;;;2.60;99.90;;;3.47;90.40;99206.38;5239466;28;20227;-63
2022/01/29 08:38:09;;;;;;;28.23;24.60;;;2.60;99.90;;;3.51;89.54;99208.47;5240594;28;20698;-62
2022/01/29 08:40:44;;;;;;;26.07;21.87;;;2.60;99.90;;;3.48;89.57;99201.47;5244753;28;20600;-62
2022/01/29 08:43:17;;;;;;;27.20;21.70;;;2.70;99.90;;;3.44;89.44;99204.41;5243995;28;20225;-62
2022/01/29 08:45:51;;;;;;;24.63;20.53;;;2.60;99.90;;;3.42;89.56;99195.75;5244892;28;20229;-62
2022/01/29 08:48:25;;;;;;;33.00;28.33;;;2.70;99.90;;;3.50;89.51;99210.13;5244132;28;20597;-61
2022/01/29 08:50:58;;;;;;;34.87;29.37;;;2.70;99.90;;;3.51;89.79;99209.38;5244514;28;20220;-65
2022/01/29 08:53:34;;;;;;;29.30;24.67;;;2.80;99.90;;;3.51;89.50;99196.72;5242875;28;20230;-62
2022/01/29 08:56:07;;;;;;;27.47;22.40;;;2.80;99.90;;;3.55;89.19;99198.88;5242783;28;20222;-61
2022/01/29 08:58:40;;;;;;;22.97;20.47;;;2.80;99.90;;;3.66;89.49;99191.50;5243002;28;20228;-62
2022/01/29 09:01:14;;;;;;;22.23;19.90;;;2.90;99.90;;;3.69;88.62;99191.81;5240942;28;20226;-61
2022/01/29 09:03:48;;;;;;;21.97;19.57;;;3.00;99.90;;;3.79;89.01;99184.47;5239666;28;20232;-62
2022/01/29 09:06:22;;;;;;;19.30;17.30;;;3.00;99.90;;;3.82;86.96;99189.84;5240774;28;20218;-61
2022/01/29 09:08:55;;;;;;;18.10;16.20;;;3.10;99.90;;;3.85;87.18;99190.16;5243110;28;20225;-61
2022/01/29 09:11:28;;;;;;;13.03;11.43;;;3.10;99.90;;;4.03;85.20;99186.13;5237110;28;20220;-61
2022/01/29 09:14:02;;;;;;;12.67;10.40;;;3.20;99.90;;;4.01;83.97;99180.03;5242687;28;20222;-62
2022/01/29 09:16:35;;;;;;;10.13;9.07;;;3.20;99.90;;;4.15;84.03;99181.41;5242683;28;20828;-61
2022/01/29 09:19:09;;;;;;;9.50;8.60;;;3.30;99.90;;;4.33;82.93;99184.97;5242214;28;20589;-61
2022/01/29 09:21:42;;;;;;;8.80;7.53;;;3.40;99.90;;;4.51;81.75;99182.66;5243769;28;20235;-61
2022/01/29 09:24:15;;;;;;;7.27;6.60;;;3.60;99.90;;;4.64;80.34;99177.22;5244778;28;20255;-61
2022/01/29 09:26:48;;;;;;;7.33;6.40;;;3.70;99.90;;;4.66;79.74;99175.72;5241773;28;20219;-59
2022/01/29 09:29:22;;;;;;;6.77;6.17;;;3.90;99.90;;;4.86;78.24;99172.66;5243138;28;20220;-60
2022/01/29 09:31:55;;;;;;;6.70;6.00;;;3.90;99.90;;;4.90;77.18;99176.41;5240446;28;20394;-59
2022/01/29 09:34:29;;;;;;;7.20;6.53;;;3.90;99.90;;;4.88;77.37;99173.72;5238683;28;20215;-59
2022/01/29 09:37:02;;;;;;;6.30;5.70;;;4.00;99.90;;;5.04;76.47;99171.09;5243500;28;20219;-61
2022/01/29 09:39:35;;;;;;;7.00;6.30;;;4.00;99.90;;;5.02;76.46;99177.63;5241631;28;20585;-60
2022/01/29 09:42:10;;;;;;;6.10;5.50;;;4.10;99.90;;;5.15;76.35;99180.66;5238403;28;20226;-62
2022/01/29 09:44:45;;;;;;;6.60;6.00;;;4.20;99.90;;;5.15;76.98;99169.59;5240660;28;20597;-62
2022/01/29 09:47:18;;;;;;;6.63;6.07;;;4.20;99.90;;;5.38;75.80;99156.69;5244737;28;20223;-60
2022/01/29 09:49:54;;;;;;;6.70;6.00;;;4.30;99.90;;;5.43;75.67;99160.53;5242459;28;20220;-60
2022/01/29 09:52:27;;;;;;;7.07;6.47;;;4.40;99.90;;;5.41;74.63;99155.34;5242194;28;20702;-60
2022/01/29 09:55:03;;;;;;;7.97;6.10;;;4.50;99.90;;;5.54;75.15;99152.34;5244709;28;20226;-58
2022/01/29 09:57:37;;;;;;;6.60;6.10;;;4.60;99.90;;;5.70;74.10;99144.59;5244307;28;20718;-60
2022/01/29 10:00:11;;;;;;;6.30;5.70;;;4.70;99.90;;;5.87;73.48;99149.63;5244076;28;20224;-62
2022/01/29 10:02:44;;;;;;;6.73;6.13;;;4.70;99.90;;;5.74;74.31;99141.59;5238229;28;20589;-59
2022/01/29 10:05:34;;;;;;;7.60;6.20;;;4.80;99.90;;;5.86;73.09;99141.88;5243236;28;20225;-58
2022/01/29 10:08:09;;;;;;;7.70;6.90;;;4.90;99.90;;;5.83;73.48;99147.53;5244010;28;20217;-59
2022/01/29 10:10:44;;;;;;;6.40;5.83;;;5.00;99.90;;;5.86;72.96;99140.22;5243975;28;20220;-60
2022/01/29 10:13:29;;;;;;;7.00;6.10;;;5.00;99.90;;;5.84;73.80;99134.13;5236407;28;20311;-62
2022/01/29 10:16:12;;;;;;;7.33;6.03;;;5.00;99.90;;;5.83;73.58;99134.84;5243909;28;20680;-59
2022/01/29 10:18:48;;;;;;;6.40;5.80;;;5.00;99.90;;;6.00;73.30;99135.63;5242448;28;20603;-61
2022/01/29 10:21:25;;;;;;;10.43;8.47;;;5.10;99.90;;;6.00;72.81;99130.53;5244039;28;20223;-61
2022/01/29 10:24:05;;;;;;;6.70;5.83;;;5.20;99.90;;;6.05;72.34;99119.19;5243210;28;20227;-60
2022/01/29 10:26:40;;;;;;;6.70;6.00;;;5.20;99.90;;;6.19;71.47;99113.78;5242755;28;20607;-60
2022/01/29 10:29:22;;;;;;;7.00;6.30;;;5.20;99.90;;;6.16;69.88;99115.13;5242927;28;20270;-61
2022/01/29 10:31:57;;;;;;;7.90;7.10;;;5.20;99.90;;;6.19;70.46;99107.81;5243315;28;20228;-59
2022/01/29 10:34:33;;;;;;;7.93;7.13;;;5.20;99.90;;;6.14;70.37;99109.00;5244860;28;20216;-61
2022/01/29 10:37:16;;;;;;;7.47;6.20;;;5.30;99.90;;;6.16;70.64;99104.97;5247267;28;20710;-62
2022/01/29 10:39:52;;;;;;;7.13;6.40;;;5.30;99.90;;;6.21;70.88;99099.59;5244948;28;20248;-61
2022/01/29 10:42:29;;;;;;;7.33;6.63;;;5.40;99.90;;;6.19;70.94;99101.06;5243518;28;20219;-60
2022/01/29 10:45:06;;;;;;;6.40;5.80;;;5.40;99.90;;;6.14;71.97;99102.28;5245690;28;20216;-62
2022/01/29 10:47:55;;;;;;;6.97;6.27;;;5.40;99.90;;;6.18;71.87;99096.75;5247473;28;20220;-62
2022/01/29 10:50:28;;;;;;;6.77;6.17;;;5.30;99.90;;;6.22;71.79;99103.91;5240243;28;20213;-61
2022/01/29 10:53:28;;;;;;;6.97;6.37;;;5.30;99.90;;;6.28;71.61;99104.47;5248446;28;20225;-62
2022/01/29 10:56:03;;;;;;;6.33;5.53;;;5.40;99.90;;;6.42;70.91;99088.00;5246051;28;20212;-62
2022/01/29 10:58:40;;;;;;;6.20;5.63;;;5.60;99.90;;;6.45;72.21;99089.91;5245422;28;20683;-62
2022/01/29 11:01:16;;;;;;;6.73;6.20;;;5.60;99.90;;;6.54;72.00;99095.84;5248158;28;20219;-61
2022/01/29 11:03:52;;;;;;;6.83;6.13;;;5.70;99.90;;;6.59;72.36;99102.25;5244973;28;20589;-62
2022/01/29 11:06:33;;;;;;;7.97;6.57;;;5.70;99.90;;;6.64;71.86;99095.97;5247592;28;20216;-61